createdAt,value
2023-02-15T00:01:12.606Z,95835.94
2023-02-15T00:03:17.215Z,95829.94
2023-02-15T00:05:18.844Z,95830.22
2023-02-15T00:07:20.704Z,95832.81
2023-02-15T00:09:23.236Z,95836.56
2023-02-15T00:11:51.264Z,95841.22
2023-02-15T00:13:52.974Z,95830.75
2023-02-15T00:15:54.587Z,95834.38
2023-02-15T00:17:57.679Z,95845.75
2023-02-15T00:19:59.325Z,95843.31
2023-02-15T00:22:01.311Z,95844.25
2023-02-15T00:24:04.520Z,95841.59
2023-02-15T00:26:10.768Z,95844.66
2023-02-15T00:28:12.476Z,95840.03
2023-02-15T00:30:14.352Z,95844.94
2023-02-15T00:32:16.034Z,95837.91
2023-02-15T00:34:20.025Z,95844.13
2023-02-15T00:36:21.626Z,95843.59
2023-02-15T00:38:23.255Z,95851.81
2023-02-15T00:40:24.864Z,95851.63
2023-02-15T00:42:26.449Z,95850.88
2023-02-15T00:44:28.134Z,95856.41
2023-02-15T00:46:29.787Z,95851.41
2023-02-15T00:48:31.523Z,95848.06
2023-02-15T00:50:33.142Z,95843.97
2023-02-15T00:52:34.820Z,95847.47
2023-02-15T00:54:36.482Z,95850.50
2023-02-15T00:56:38.193Z,95846.34
2023-02-15T00:58:39.875Z,95844.13
2023-02-15T01:00:42.532Z,95843.97
2023-02-15T01:02:44.109Z,95852.16
2023-02-15T01:04:45.736Z,95850.81
2023-02-15T01:06:47.337Z,95847.13
2023-02-15T01:08:49.392Z,95850.31
2023-02-15T01:10:51.088Z,95848.06
2023-02-15T01:12:53.839Z,95842.78
2023-02-15T01:14:55.519Z,95842.13
2023-02-15T01:16:57.177Z,95847.97
2023-02-15T01:18:58.986Z,95840.28
2023-02-15T01:21:01.372Z,95835.47
2023-02-15T01:23:03.100Z,95842.13
2023-02-15T01:25:05.274Z,95844.28
2023-02-15T01:27:06.843Z,95836.16
2023-02-15T01:29:08.558Z,95842.44
2023-02-15T01:31:14.351Z,95828.50
2023-02-15T01:33:19.022Z,95831.25
2023-02-15T01:35:20.851Z,95828.66
2023-02-15T01:37:22.401Z,95828.72
2023-02-15T01:39:24.101Z,95835.69
2023-02-15T01:41:27.293Z,95831.16
2023-02-15T01:43:42.658Z,95835.13
2023-02-15T01:45:47.448Z,95817.63
2023-02-15T01:48:05.416Z,95818.22
2023-02-15T01:50:34.878Z,95816.25
2023-02-15T01:52:39.699Z,95806.03
2023-02-15T01:54:42.172Z,95817.47
2023-02-15T01:56:43.874Z,95816.09
2023-02-15T01:58:46.750Z,95813.91
2023-02-15T02:00:48.481Z,95811.06
2023-02-15T02:02:53.351Z,95811.00
2023-02-15T02:05:07.511Z,95808.66
2023-02-15T02:07:11.059Z,95806.91
2023-02-15T02:09:13.814Z,95809.59
2023-02-15T02:11:15.778Z,95804.25
2023-02-15T02:13:17.470Z,95805.47
2023-02-15T02:15:19.343Z,95808.13
2023-02-15T02:17:48.606Z,95811.75
2023-02-15T02:20:12.154Z,95817.47
2023-02-15T02:22:35.104Z,95815.00
2023-02-15T02:24:58.225Z,95812.16
2023-02-15T02:27:31.268Z,95815.31
2023-02-15T02:29:39.051Z,95822.06
2023-02-15T02:31:54.343Z,95824.53
2023-02-15T02:34:11.299Z,95825.44
2023-02-15T02:36:17.847Z,95822.59
2023-02-15T02:38:32.473Z,95824.16
2023-02-15T02:40:42.731Z,95817.63
2023-02-15T02:42:59.320Z,95825.25
2023-02-15T02:45:08.191Z,95825.53
2023-02-15T02:47:27.740Z,95824.03
2023-02-15T02:49:33.361Z,95819.72
2023-02-15T02:51:35.026Z,95824.41
2023-02-15T02:53:36.728Z,95824.16
2023-02-15T02:55:41.334Z,95819.03
2023-02-15T02:57:53.919Z,95829.22
2023-02-15T02:59:57.034Z,95822.47
2023-02-15T03:02:18.756Z,95832.75
2023-02-15T03:04:24.718Z,95834.63
2023-02-15T03:06:35.328Z,95835.91
2023-02-15T03:08:59.108Z,95837.72
2023-02-15T03:11:01.891Z,95844.19
2023-02-15T03:13:03.724Z,95842.44
2023-02-15T03:15:18.235Z,95844.13
2023-02-15T03:17:22.187Z,95846.03
2023-02-15T03:19:25.184Z,95840.94
2023-02-15T03:21:50.551Z,95837.53
2023-02-15T03:24:00.939Z,95838.94
2023-02-15T03:26:04.800Z,95842.44
2023-02-15T03:28:13.243Z,95836.34
2023-02-15T03:30:16.675Z,95841.53
2023-02-15T03:32:18.761Z,95841.25
2023-02-15T03:34:20.533Z,95847.19
2023-02-15T03:36:57.155Z,95841.00
2023-02-15T03:39:16.332Z,95845.16
2023-02-15T03:41:19.471Z,95841.25
2023-02-15T03:43:38.951Z,95843.28
2023-02-15T03:45:55.548Z,95839.69
2023-02-15T03:47:58.081Z,95842.53
2023-02-15T03:50:29.937Z,95845.13
2023-02-15T03:52:33.208Z,95836.16
2023-02-15T03:54:48.529Z,95844.94
2023-02-15T03:57:10.440Z,95839.56
2023-02-15T03:59:30.513Z,95847.53
2023-02-15T04:01:57.307Z,95834.59
2023-02-15T04:04:04.556Z,95838.19
2023-02-15T04:06:06.557Z,95843.09
2023-02-15T04:08:08.649Z,95844.41
2023-02-15T04:10:29.091Z,95845.28
2023-02-15T04:12:32.061Z,95848.47
2023-02-15T04:14:52.356Z,95849.91
2023-02-15T04:16:54.114Z,95854.97
2023-02-15T04:19:14.179Z,95853.19
2023-02-15T04:21:34.639Z,95861.66
2023-02-15T04:23:54.617Z,95865.72
2023-02-15T04:25:56.301Z,95872.56
2023-02-15T04:27:57.930Z,95871.69
2023-02-15T04:29:59.650Z,95880.53
2023-02-15T04:32:02.669Z,95879.25
2023-02-15T04:34:04.316Z,95890.53
2023-02-15T04:36:06.496Z,95890.69
2023-02-15T04:38:08.225Z,95886.94
2023-02-15T04:40:13.344Z,95885.38
2023-02-15T04:42:14.949Z,95883.19
2023-02-15T04:44:16.797Z,95888.38
2023-02-15T04:46:18.585Z,95885.72
2023-02-15T04:48:20.308Z,95881.84
2023-02-15T04:50:21.967Z,95883.75
2023-02-15T04:52:23.723Z,95883.88
2023-02-15T04:54:25.401Z,95889.78
2023-02-15T04:56:27.137Z,95893.13
2023-02-15T04:58:28.913Z,95887.22
2023-02-15T05:00:30.516Z,95887.94
2023-02-15T05:02:32.282Z,95894.72
2023-02-15T05:04:34.039Z,95899.41
2023-02-15T05:06:36.044Z,95894.63
2023-02-15T05:08:37.718Z,95899.06
2023-02-15T05:10:39.368Z,95893.22
2023-02-15T05:12:40.981Z,95906.16
2023-02-15T05:14:42.517Z,95906.09
2023-02-15T05:16:44.172Z,95904.59
2023-02-15T05:18:45.889Z,95907.06
2023-02-15T05:20:47.765Z,95904.31
2023-02-15T05:22:49.854Z,95910.34
2023-02-15T05:25:10.317Z,95905.97
2023-02-15T05:27:30.992Z,95914.63
2023-02-15T05:29:32.620Z,95912.09
2023-02-15T05:31:34.867Z,95919.69
2023-02-15T05:33:36.810Z,95921.44
2023-02-15T05:35:38.896Z,95921.59
2023-02-15T05:37:40.557Z,95925.94
2023-02-15T05:39:42.672Z,95924.25
2023-02-15T05:41:45.097Z,95919.81
2023-02-15T05:43:46.813Z,95934.47
2023-02-15T05:45:52.748Z,95931.13
2023-02-15T05:47:54.672Z,95929.84
2023-02-15T05:49:56.544Z,95933.94
2023-02-15T05:51:58.288Z,95931.28
2023-02-15T05:53:59.984Z,95931.03
2023-02-15T05:56:03.624Z,95928.94
2023-02-15T05:58:05.656Z,95927.75
2023-02-15T06:00:08.072Z,95936.53
2023-02-15T06:02:10.008Z,95938.13
2023-02-15T06:04:11.780Z,95941.38
2023-02-15T06:06:13.536Z,95933.94
2023-02-15T06:08:15.339Z,95936.81
2023-02-15T06:10:17.072Z,95939.66
2023-02-15T06:12:18.695Z,95936.97
2023-02-15T06:14:20.406Z,95931.47
2023-02-15T06:16:22.473Z,95938.16
2023-02-15T06:18:24.174Z,95940.66
2023-02-15T06:20:26.339Z,95934.97
2023-02-15T06:22:27.895Z,95942.47
2023-02-15T06:24:29.637Z,95942.28
2023-02-15T06:26:31.290Z,95943.88
2023-02-15T06:28:32.920Z,95941.19
2023-02-15T06:30:34.872Z,95948.47
2023-02-15T06:32:37.067Z,95942.31
2023-02-15T06:34:38.672Z,95936.13
2023-02-15T06:36:40.395Z,95941.28
2023-02-15T06:38:42.535Z,95933.06
2023-02-15T06:40:44.092Z,95936.41
2023-02-15T06:42:46.067Z,95937.91
2023-02-15T06:44:47.717Z,95933.19
2023-02-15T06:46:49.309Z,95939.94
2023-02-15T06:48:50.967Z,95938.44
2023-02-15T06:50:53.401Z,95937.28
2023-02-15T06:53:00.707Z,95938.22
2023-02-15T06:55:02.465Z,95948.06
2023-02-15T06:57:04.156Z,95939.31
2023-02-15T06:59:05.820Z,95939.47
2023-02-15T07:01:08.213Z,95942.38
2023-02-15T07:03:10.120Z,95937.81
2023-02-15T07:05:11.831Z,95940.25
2023-02-15T07:07:13.688Z,95938.56
2023-02-15T07:09:15.353Z,95938.22
2023-02-15T07:11:35.210Z,95940.28
2023-02-15T07:13:37.782Z,95936.94
2023-02-15T07:15:39.579Z,95936.47
2023-02-15T07:17:41.474Z,95935.66
2023-02-15T07:19:43.244Z,95946.19
2023-02-15T07:21:46.577Z,95942.34
2023-02-15T07:23:48.802Z,95949.56
2023-02-15T07:25:58.015Z,95951.50
2023-02-15T07:28:03.321Z,95946.03
2023-02-15T07:30:07.932Z,95947.50
2023-02-15T07:32:09.869Z,95950.09
2023-02-15T07:34:11.916Z,95950.41
2023-02-15T07:36:13.766Z,95936.09
2023-02-15T07:38:15.913Z,95944.94
2023-02-15T07:40:17.579Z,95934.53
2023-02-15T07:42:20.766Z,95943.06
2023-02-15T07:44:22.465Z,95939.06
2023-02-15T07:46:24.113Z,95936.78
2023-02-15T07:48:25.715Z,95936.66
2023-02-15T07:50:27.413Z,95933.25
2023-02-15T07:52:29.059Z,95924.72
2023-02-15T07:54:30.983Z,95932.03
2023-02-15T07:56:34.712Z,95927.78
2023-02-15T07:58:52.914Z,95930.00
2023-02-15T08:01:02.173Z,95926.28
2023-02-15T08:03:16.409Z,95931.75
2023-02-15T08:05:19.320Z,95925.94
2023-02-15T08:07:21.225Z,95925.38
2023-02-15T08:09:23.094Z,95928.34
2023-02-15T08:11:26.723Z,95926.13
2023-02-15T08:13:28.444Z,95934.53
2023-02-15T08:15:30.275Z,95932.44
2023-02-15T08:17:31.866Z,95944.09
2023-02-15T08:19:34.272Z,95934.19
2023-02-15T08:21:37.941Z,95940.75
2023-02-15T08:23:39.734Z,95937.22
2023-02-15T08:25:41.314Z,95937.06
2023-02-15T08:27:42.946Z,95945.03
2023-02-15T08:29:44.742Z,95935.56
2023-02-15T08:31:47.094Z,95950.41
2023-02-15T08:33:50.269Z,95937.97
2023-02-15T08:35:51.821Z,95943.38
2023-02-15T08:37:53.756Z,95941.44
2023-02-15T08:39:55.497Z,95941.88
2023-02-15T08:41:57.127Z,95938.63
2023-02-15T08:44:01.124Z,95952.63
2023-02-15T08:46:02.963Z,95952.41
2023-02-15T08:48:04.724Z,95951.16
2023-02-15T08:50:06.756Z,95956.78
2023-02-15T08:52:08.457Z,95952.63
2023-02-15T08:54:13.380Z,95950.03
2023-02-15T08:56:14.964Z,95945.03
2023-02-15T08:58:16.693Z,95941.31
2023-02-15T09:00:18.886Z,95947.06
2023-02-15T09:02:20.508Z,95945.22
2023-02-15T09:04:23.706Z,95948.75
2023-02-15T09:06:26.319Z,95953.44
2023-02-15T09:08:29.096Z,95947.06
2023-02-15T09:10:30.756Z,95952.16
2023-02-15T09:12:32.407Z,95943.44
2023-02-15T09:14:34.482Z,95946.13
2023-02-15T09:16:38.028Z,95944.19
2023-02-15T09:18:40.694Z,95944.44
2023-02-15T09:20:42.302Z,95944.44
2023-02-15T09:22:44.064Z,95937.97
2023-02-15T09:24:45.786Z,95945.56
2023-02-15T09:26:48.772Z,95948.00
2023-02-15T09:28:54.120Z,95945.47
2023-02-15T09:30:56.593Z,95951.78
2023-02-15T09:32:58.297Z,95941.41
2023-02-15T09:35:00.005Z,95948.00
2023-02-15T09:37:01.670Z,95940.38
2023-02-15T09:39:13.925Z,95941.75
2023-02-15T09:41:30.742Z,95948.34
2023-02-15T09:43:42.924Z,95947.63
2023-02-15T09:46:13.695Z,95950.22
2023-02-15T09:48:22.066Z,95945.56
2023-02-15T09:50:29.303Z,95943.38
2023-02-15T09:52:58.838Z,95939.28
2023-02-15T09:55:29.692Z,95944.94
2023-02-15T09:57:41.205Z,95945.41
2023-02-15T10:00:05.221Z,95928.69
2023-02-15T10:02:25.587Z,95938.03
2023-02-15T10:04:34.210Z,95935.13
2023-02-15T10:06:42.929Z,95927.34
2023-02-15T10:09:12.399Z,95932.91
2023-02-15T10:11:41.123Z,95936.03
2023-02-15T10:13:49.561Z,95937.72
2023-02-15T10:16:09.886Z,95930.94
2023-02-15T10:18:21.030Z,95925.81
2023-02-15T10:20:50.695Z,95927.91
2023-02-15T10:22:58.409Z,95934.50
2023-02-15T10:25:13.282Z,95931.44
2023-02-15T10:27:20.544Z,95923.25
2023-02-15T10:29:37.800Z,95923.72
2023-02-15T10:31:52.038Z,95921.34
2023-02-15T10:34:17.155Z,95923.16
2023-02-15T10:36:38.687Z,95909.78
2023-02-15T10:38:58.212Z,95916.97
2023-02-15T10:41:33.522Z,95911.34
2023-02-15T10:43:50.606Z,95902.22
2023-02-15T10:46:24.992Z,95907.34
2023-02-15T10:48:56.829Z,95904.47
2023-02-15T10:51:00.972Z,95904.72
2023-02-15T10:53:08.675Z,95903.69
2023-02-15T10:55:20.333Z,95906.22
2023-02-15T10:57:21.847Z,95900.06
2023-02-15T10:59:49.946Z,95900.19
2023-02-15T11:02:15.978Z,95898.97
2023-02-15T11:04:17.688Z,95901.38
2023-02-15T11:06:20.955Z,95908.47
2023-02-15T11:08:25.830Z,95891.38
2023-02-15T11:10:38.939Z,95882.03
2023-02-15T11:12:43.389Z,95892.09
2023-02-15T11:14:49.276Z,95892.56
2023-02-15T11:16:54.332Z,95893.16
2023-02-15T11:19:00.011Z,95887.94
2023-02-15T11:21:23.195Z,95892.94
2023-02-15T11:23:26.453Z,95888.06
2023-02-15T11:25:36.038Z,95892.13
2023-02-15T11:27:37.908Z,95881.78
2023-02-15T11:29:51.523Z,95884.16
2023-02-15T11:31:58.792Z,95882.28
2023-02-15T11:34:06.075Z,95884.56
2023-02-15T11:36:18.278Z,95885.88
2023-02-15T11:38:25.325Z,95872.69
2023-02-15T11:40:31.808Z,95873.69
2023-02-15T11:42:34.203Z,95876.50
2023-02-15T11:44:38.706Z,95882.22
2023-02-15T11:46:40.411Z,95872.69
2023-02-15T11:48:43.298Z,95867.19
2023-02-15T11:50:45.630Z,95859.75
2023-02-15T11:52:47.524Z,95851.63
2023-02-15T11:54:51.504Z,95854.22
2023-02-15T11:56:53.231Z,95856.63
2023-02-15T11:59:05.529Z,95857.03
2023-02-15T12:01:33.314Z,95849.84
2023-02-15T12:03:41.534Z,95856.63
2023-02-15T12:05:45.977Z,95850.50
2023-02-15T12:07:50.203Z,95844.38
2023-02-15T12:10:19.700Z,95854.66
2023-02-15T12:12:31.609Z,95838.50
2023-02-15T12:14:49.302Z,95847.81
2023-02-15T12:16:52.785Z,95828.69
2023-02-15T12:18:56.576Z,95834.97
2023-02-15T12:21:14.611Z,95823.66
2023-02-15T12:23:16.875Z,95835.97
2023-02-15T12:25:37.328Z,95829.06
2023-02-15T12:27:44.304Z,95828.84
2023-02-15T12:29:57.816Z,95824.56
2023-02-15T12:32:00.390Z,95831.72
2023-02-15T12:34:04.684Z,95833.41
2023-02-15T12:36:16.878Z,95823.44
2023-02-15T12:38:18.432Z,95813.44
2023-02-15T12:40:23.745Z,95821.69
2023-02-15T12:42:26.563Z,95809.75
2023-02-15T12:44:30.633Z,95805.19
2023-02-15T12:46:37.963Z,95807.72
2023-02-15T12:48:40.629Z,95805.31
2023-02-15T12:50:47.438Z,95802.94
2023-02-15T12:52:51.562Z,95786.13
2023-02-15T12:54:53.403Z,95792.13
2023-02-15T12:56:55.170Z,95788.00
2023-02-15T12:59:06.141Z,95790.72
2023-02-15T13:01:13.052Z,95780.72
2023-02-15T13:03:19.942Z,95783.66
2023-02-15T13:05:49.917Z,95787.88
2023-02-15T13:07:55.025Z,95787.59
2023-02-15T13:09:56.689Z,95782.63
2023-02-15T13:12:19.070Z,95786.72
2023-02-15T13:14:22.945Z,95777.34
2023-02-15T13:16:31.024Z,95782.00
2023-02-15T13:18:35.939Z,95776.09
2023-02-15T13:20:38.672Z,95773.63
2023-02-15T13:22:44.113Z,95774.31
2023-02-15T13:24:51.635Z,95767.75
2023-02-15T13:27:09.389Z,95775.09
2023-02-15T13:29:27.646Z,95779.25
2023-02-15T13:31:33.285Z,95783.44
2023-02-15T13:33:37.528Z,95776.06
2023-02-15T13:35:46.152Z,95775.50
2023-02-15T13:38:08.097Z,95778.13
2023-02-15T13:40:17.124Z,95784.41
2023-02-15T13:42:32.243Z,95787.41
2023-02-15T13:44:43.279Z,95794.25
2023-02-15T13:47:12.904Z,95792.06
2023-02-15T13:49:22.660Z,95799.34
2023-02-15T13:51:40.091Z,95788.38
2023-02-15T13:53:59.563Z,95794.16
2023-02-15T13:56:19.286Z,95797.44
2023-02-15T13:58:29.679Z,95793.31
2023-02-15T14:01:12.818Z,95790.06
2023-02-15T14:03:46.898Z,95797.00
2023-02-15T14:05:54.394Z,95806.84
2023-02-15T14:08:16.644Z,95804.03
2023-02-15T14:10:30.997Z,95812.31
2023-02-15T14:12:32.460Z,95821.59
2023-02-15T14:14:58.930Z,95820.72
2023-02-15T14:17:38.773Z,95816.09
2023-02-15T14:19:54.994Z,95825.84
2023-02-15T14:22:14.908Z,95815.69
2023-02-15T14:24:28.471Z,95828.44
2023-02-15T14:26:54.269Z,95818.97
2023-02-15T14:29:03.868Z,95824.81
2023-02-15T14:31:08.632Z,95819.00
2023-02-15T14:33:28.790Z,95826.69
2023-02-15T14:35:31.476Z,95826.13
2023-02-15T14:38:06.383Z,95818.16
2023-02-15T14:40:38.233Z,95816.44
2023-02-15T14:42:57.978Z,95814.16
2023-02-15T14:45:20.802Z,95821.19
2023-02-15T14:47:46.370Z,95816.84
2023-02-15T14:49:48.048Z,95819.97
2023-02-15T14:51:50.729Z,95815.38
2023-02-15T14:53:52.312Z,95827.22
2023-02-15T14:56:12.063Z,95815.84
2023-02-15T14:58:14.529Z,95816.47
2023-02-15T15:00:51.731Z,95816.81
2023-02-15T15:02:53.938Z,95816.72
2023-02-15T15:05:09.586Z,95813.31
2023-02-15T15:07:40.232Z,95813.75
2023-02-15T15:09:42.980Z,95817.47
2023-02-15T15:11:47.434Z,95807.94
2023-02-15T15:14:00.162Z,95813.59
2023-02-15T15:16:26.642Z,95820.53
2023-02-15T15:18:48.420Z,95814.72
2023-02-15T15:20:52.044Z,95817.03
2023-02-15T15:23:15.617Z,95820.81
2023-02-15T15:25:39.772Z,95822.72
2023-02-15T15:27:52.501Z,95827.47
2023-02-15T15:29:54.119Z,95830.72
2023-02-15T15:31:57.262Z,95837.53
2023-02-15T15:34:04.814Z,95832.25
2023-02-15T15:36:22.172Z,95835.78
2023-02-15T15:38:23.789Z,95829.03
2023-02-15T15:40:49.785Z,95842.72
2023-02-15T15:43:02.072Z,95838.34
2023-02-15T15:45:34.149Z,95829.31
2023-02-15T15:47:42.243Z,95841.25
2023-02-15T15:49:44.147Z,95843.50
2023-02-15T15:51:46.811Z,95831.97
2023-02-15T15:53:52.223Z,95839.09
2023-02-15T15:55:59.777Z,95839.31
2023-02-15T15:58:06.273Z,95846.03
2023-02-15T16:00:32.240Z,95842.19
2023-02-15T16:02:33.960Z,95841.16
2023-02-15T16:04:36.514Z,95839.09
2023-02-15T16:06:39.843Z,95842.50
2023-02-15T16:08:41.653Z,95841.38
2023-02-15T16:10:43.226Z,95839.31
2023-02-15T16:12:48.025Z,95834.84
2023-02-15T16:14:52.759Z,95835.88
2023-02-15T16:16:57.572Z,95842.28
2023-02-15T16:19:00.662Z,95846.56
2023-02-15T16:21:02.911Z,95849.94
2023-02-15T16:23:29.315Z,95850.91
2023-02-15T16:25:50.059Z,95848.19
2023-02-15T16:27:52.676Z,95843.66
2023-02-15T16:29:54.394Z,95852.94
2023-02-15T16:32:04.809Z,95852.56
2023-02-15T16:34:11.531Z,95848.19
2023-02-15T16:36:24.843Z,95859.91
2023-02-15T16:38:44.793Z,95856.13
2023-02-15T16:40:54.795Z,95857.59
2023-02-15T16:43:01.052Z,95852.34
2023-02-15T16:45:13.444Z,95860.22
2023-02-15T16:47:19.372Z,95852.38
2023-02-15T16:49:23.503Z,95852.50
2023-02-15T16:51:28.657Z,95848.94
2023-02-15T16:53:30.546Z,95844.28
2023-02-15T16:55:36.934Z,95851.69
2023-02-15T16:57:39.276Z,95849.84
2023-02-15T16:59:46.076Z,95851.81
2023-02-15T17:01:47.849Z,95845.59
2023-02-15T17:03:50.438Z,95844.56
2023-02-15T17:05:54.783Z,95845.69
2023-02-15T17:08:20.939Z,95841.75
2023-02-15T17:10:37.440Z,95849.84
2023-02-15T17:12:48.588Z,95843.72
2023-02-15T17:14:55.710Z,95849.66
2023-02-15T17:17:08.278Z,95842.50
2023-02-15T17:19:15.092Z,95845.66
2023-02-15T17:21:21.915Z,95846.88
2023-02-15T17:23:33.155Z,95843.22
2023-02-15T17:25:40.389Z,95843.00
2023-02-15T17:27:42.050Z,95847.47
2023-02-15T17:30:01.746Z,95840.50
2023-02-15T17:32:04.865Z,95842.09
2023-02-15T17:34:06.867Z,95839.06
2023-02-15T17:36:23.516Z,95841.00
2023-02-15T17:38:25.173Z,95835.00
2023-02-15T17:40:37.002Z,95840.28
2023-02-15T17:42:38.721Z,95840.66
2023-02-15T17:44:40.377Z,95836.84
2023-02-15T17:46:42.582Z,95844.84
2023-02-15T17:48:44.146Z,95847.69
2023-02-15T17:50:45.868Z,95844.94
2023-02-15T17:52:47.776Z,95858.06
2023-02-15T17:55:15.537Z,95857.25
2023-02-15T17:57:17.227Z,95850.88
2023-02-15T17:59:18.991Z,95851.78
2023-02-15T18:01:39.974Z,95850.56
2023-02-15T18:04:06.460Z,95850.22
2023-02-15T18:06:26.952Z,95852.34
2023-02-15T18:08:47.091Z,95852.44
2023-02-15T18:11:07.433Z,95857.69
2023-02-15T18:13:09.099Z,95852.75
2023-02-15T18:15:13.631Z,95866.31
2023-02-15T18:17:16.994Z,95857.66
2023-02-15T18:19:23.174Z,95855.88
2023-02-15T18:21:25.257Z,95863.03
2023-02-15T18:23:26.999Z,95862.31
2023-02-15T18:25:28.606Z,95858.66
2023-02-15T18:27:30.299Z,95852.63
2023-02-15T18:29:32.281Z,95856.13
2023-02-15T18:31:33.918Z,95852.19
2023-02-15T18:33:38.816Z,95854.53
2023-02-15T18:35:40.399Z,95852.84
2023-02-15T18:37:42.054Z,95852.66
2023-02-15T18:39:46.909Z,95851.94
2023-02-15T18:41:48.564Z,95845.28
2023-02-15T18:43:51.010Z,95848.63
2023-02-15T18:45:52.699Z,95848.25
2023-02-15T18:47:55.187Z,95853.25
2023-02-15T18:49:57.032Z,95852.31
2023-02-15T18:51:58.756Z,95851.59
2023-02-15T18:54:00.582Z,95852.59
2023-02-15T18:56:02.213Z,95851.69
2023-02-15T18:58:04.123Z,95851.41
2023-02-15T19:00:10.801Z,95844.22
2023-02-15T19:02:17.689Z,95850.31
2023-02-15T19:04:19.586Z,95852.06
2023-02-15T19:06:23.191Z,95849.94
2023-02-15T19:08:25.103Z,95850.19
2023-02-15T19:10:28.853Z,95849.56
2023-02-15T19:12:30.580Z,95849.22
2023-02-15T19:14:33.369Z,95854.75
2023-02-15T19:16:36.008Z,95853.16
2023-02-15T19:18:37.717Z,95849.53
2023-02-15T19:20:42.329Z,95843.81
2023-02-15T19:22:44.452Z,95852.44
2023-02-15T19:24:47.268Z,95848.47
2023-02-15T19:26:49.608Z,95847.91
2023-02-15T19:28:51.741Z,95849.47
2023-02-15T19:30:53.421Z,95842.34
2023-02-15T19:32:55.079Z,95847.78
2023-02-15T19:34:57.625Z,95846.28
2023-02-15T19:36:59.359Z,95849.53
2023-02-15T19:39:00.969Z,95862.34
2023-02-15T19:41:06.827Z,95856.97
2023-02-15T19:43:17.685Z,95866.59
2023-02-15T19:45:24.687Z,95869.00
2023-02-15T19:47:28.243Z,95868.16
2023-02-15T19:49:30.187Z,95866.72
2023-02-15T19:51:31.829Z,95870.06
2023-02-15T19:53:33.383Z,95870.59
2023-02-15T19:55:35.490Z,95875.50
2023-02-15T19:57:37.115Z,95864.22
2023-02-15T19:59:38.742Z,95863.34
2023-02-15T20:01:40.801Z,95866.22
2023-02-15T20:03:42.571Z,95870.97
2023-02-15T20:05:44.874Z,95871.69
2023-02-15T20:07:48.574Z,95864.34
2023-02-15T20:09:50.176Z,95864.00
2023-02-15T20:11:55.310Z,95867.53
2023-02-15T20:13:56.865Z,95864.56
2023-02-15T20:16:01.233Z,95868.28
2023-02-15T20:18:04.199Z,95864.00
2023-02-15T20:20:06.454Z,95863.91
2023-02-15T20:22:27.466Z,95860.22
2023-02-15T20:24:30.183Z,95857.59
2023-02-15T20:26:33.092Z,95863.25
2023-02-15T20:28:34.770Z,95867.34
2023-02-15T20:30:36.498Z,95861.31
2023-02-15T20:32:38.202Z,95862.53
2023-02-15T20:34:39.858Z,95856.22
2023-02-15T20:36:41.840Z,95856.59
2023-02-15T20:38:44.143Z,95857.91
2023-02-15T20:41:05.804Z,95861.03
2023-02-15T20:43:13.864Z,95860.31
2023-02-15T20:45:23.877Z,95857.53
2023-02-15T20:47:27.571Z,95854.81
2023-02-15T20:49:29.703Z,95854.09
2023-02-15T20:51:31.468Z,95856.16
2023-02-15T20:53:33.150Z,95853.63
2023-02-15T20:55:34.836Z,95852.63
2023-02-15T20:57:36.386Z,95848.91
2023-02-15T20:59:38.140Z,95849.75
2023-02-15T21:01:40.302Z,95852.06
2023-02-15T21:03:42.119Z,95851.34
2023-02-15T21:05:45.640Z,95846.50
2023-02-15T21:07:48.684Z,95853.09
2023-02-15T21:09:51.040Z,95851.59
2023-02-15T21:11:55.051Z,95849.66
2023-02-15T21:13:56.634Z,95847.72
2023-02-15T21:15:58.427Z,95850.59
2023-02-15T21:18:05.193Z,95854.66
2023-02-15T21:20:09.563Z,95851.50
2023-02-15T21:22:13.110Z,95847.66
2023-02-15T21:24:16.428Z,95847.63
2023-02-15T21:26:21.435Z,95847.13
2023-02-15T21:28:26.204Z,95852.53
2023-02-15T21:30:28.280Z,95852.72
2023-02-15T21:32:30.088Z,95852.19
2023-02-15T21:34:31.710Z,95849.09
2023-02-15T21:36:33.473Z,95848.72
2023-02-15T21:38:35.380Z,95849.72
2023-02-15T21:40:36.974Z,95852.03
2023-02-15T21:42:57.218Z,95851.31
2023-02-15T21:45:17.374Z,95861.28
2023-02-15T21:47:46.121Z,95859.69
2023-02-15T21:49:47.719Z,95861.28
2023-02-15T21:52:09.570Z,95871.66
2023-02-15T21:54:13.171Z,95865.47
2023-02-15T21:56:20.451Z,95872.00
2023-02-15T21:58:27.220Z,95875.94
2023-02-15T22:00:29.504Z,95880.38
2023-02-15T22:02:31.414Z,95875.22
2023-02-15T22:04:33.185Z,95875.00
2023-02-15T22:06:34.800Z,95876.31
2023-02-15T22:08:37.033Z,95882.06
2023-02-15T22:10:39.624Z,95874.56
2023-02-15T22:12:42.828Z,95878.19
2023-02-15T22:14:46.176Z,95873.69
2023-02-15T22:16:47.736Z,95882.00
2023-02-15T22:18:49.548Z,95884.28
2023-02-15T22:20:51.819Z,95884.00
2023-02-15T22:22:53.531Z,95882.16
2023-02-15T22:24:55.186Z,95876.06
2023-02-15T22:26:56.817Z,95880.59
2023-02-15T22:28:58.537Z,95882.59
2023-02-15T22:31:01.011Z,95872.78
2023-02-15T22:33:03.101Z,95873.38
2023-02-15T22:35:06.970Z,95869.38
2023-02-15T22:37:08.482Z,95864.53
2023-02-15T22:39:10.274Z,95875.25
2023-02-15T22:41:11.908Z,95872.72
2023-02-15T22:43:39.528Z,95866.72
2023-02-15T22:45:41.369Z,95871.78
2023-02-15T22:47:43.000Z,95874.31
2023-02-15T22:49:44.625Z,95877.72
2023-02-15T22:51:49.902Z,95877.31
2023-02-15T22:53:54.082Z,95875.41
2023-02-15T22:55:56.077Z,95876.91
2023-02-15T22:57:58.001Z,95874.22
2023-02-15T23:00:01.155Z,95880.34
2023-02-15T23:02:03.523Z,95879.56
2023-02-15T23:04:05.413Z,95874.22
2023-02-15T23:06:07.150Z,95872.22
2023-02-15T23:08:10.797Z,95879.56
2023-02-15T23:10:21.264Z,95876.75
2023-02-15T23:12:50.547Z,95883.59
2023-02-15T23:14:53.152Z,95877.38
2023-02-15T23:16:54.894Z,95876.72
2023-02-15T23:18:56.537Z,95877.06
2023-02-15T23:21:01.092Z,95873.31
2023-02-15T23:23:02.762Z,95873.56
2023-02-15T23:25:05.801Z,95872.97
2023-02-15T23:27:25.984Z,95869.78
2023-02-15T23:29:28.111Z,95873.13
2023-02-15T23:31:32.443Z,95867.94
2023-02-15T23:33:35.046Z,95871.13
2023-02-15T23:35:36.629Z,95866.19
2023-02-15T23:37:38.240Z,95864.69
2023-02-15T23:39:58.468Z,95863.28
2023-02-15T23:56:59.382Z,95862.09
2023-02-15T23:59:01.107Z,95861.66
